createdAt,value
2018-11-26T00:00:01.380Z,20.33
2018-11-26T00:02:29.459Z,20.07
2018-11-26T00:04:57.531Z,19.63
2018-11-26T00:07:26.259Z,20.63
2018-11-26T00:10:04.534Z,19.77
2018-11-26T00:12:32.703Z,20.30
2018-11-26T00:15:00.798Z,20.27
2018-11-26T00:17:28.969Z,20.10
2018-11-26T00:19:57.054Z,20.47
2018-11-26T00:22:25.131Z,20.70
2018-11-26T00:24:53.210Z,20.00
2018-11-26T00:27:21.299Z,20.00
2018-11-26T00:29:49.417Z,19.57
2018-11-26T00:32:17.506Z,20.43
2018-11-26T00:34:45.582Z,20.00
2018-11-26T00:37:13.678Z,19.40
2018-11-26T00:39:41.822Z,20.70
2018-11-26T00:42:09.902Z,18.37
2018-11-26T00:44:37.990Z,19.97
2018-11-26T00:47:06.585Z,19.63
2018-11-26T00:49:34.682Z,19.77
2018-11-26T00:52:02.774Z,18.33
2018-11-26T00:54:30.863Z,18.60
2018-11-26T00:56:58.943Z,19.17
2018-11-26T00:59:27.014Z,18.10
2018-11-26T01:01:55.097Z,18.23
2018-11-26T01:04:23.198Z,16.60
2018-11-26T01:06:51.312Z,17.27
2018-11-26T01:09:19.393Z,16.73
2018-11-26T01:11:47.516Z,16.27
2018-11-26T01:14:15.612Z,16.20
2018-11-26T01:16:43.706Z,15.90
2018-11-26T01:19:11.802Z,15.83
2018-11-26T01:21:39.882Z,15.07
2018-11-26T01:24:07.958Z,16.33
2018-11-26T01:26:36.068Z,15.37
2018-11-26T01:29:04.217Z,14.60
2018-11-26T01:31:32.302Z,15.40
2018-11-26T01:34:00.374Z,14.73
2018-11-26T01:36:28.470Z,14.80
2018-11-26T01:38:56.573Z,14.53
2018-11-26T01:41:24.731Z,14.77
2018-11-26T01:43:52.842Z,14.43
2018-11-26T01:46:20.928Z,14.73
2018-11-26T01:48:48.994Z,13.67
2018-11-26T01:51:17.080Z,14.13
2018-11-26T01:53:45.182Z,14.70
2018-11-26T01:56:13.366Z,14.20
2018-11-26T01:58:41.466Z,14.17
2018-11-26T02:01:09.570Z,13.60
2018-11-26T02:03:37.687Z,13.57
2018-11-26T02:06:05.774Z,13.43
2018-11-26T02:08:33.882Z,14.03
2018-11-26T02:11:01.991Z,14.73
2018-11-26T02:13:30.090Z,13.23
2018-11-26T02:15:58.200Z,14.60
2018-11-26T02:18:26.285Z,14.27
2018-11-26T02:20:54.350Z,14.07
2018-11-26T02:23:22.428Z,14.07
2018-11-26T02:25:50.520Z,14.50
2018-11-26T02:28:18.602Z,14.53
2018-11-26T02:30:46.689Z,14.80
2018-11-26T02:33:14.795Z,13.77
2018-11-26T02:35:42.885Z,15.13
2018-11-26T02:38:10.989Z,14.63
2018-11-26T02:40:39.079Z,13.57
2018-11-26T02:43:07.169Z,13.77
2018-11-26T02:45:35.296Z,14.20
2018-11-26T02:48:03.405Z,15.00
2018-11-26T02:50:31.491Z,14.93
2018-11-26T02:52:59.574Z,16.50
2018-11-26T02:55:27.663Z,15.43
2018-11-26T02:57:55.809Z,14.90
2018-11-26T03:00:23.904Z,15.10
2018-11-26T03:02:52.019Z,14.57
2018-11-26T03:05:26.050Z,14.97
2018-11-26T03:07:54.182Z,15.43
2018-11-26T03:10:22.498Z,15.70
2018-11-26T03:12:50.595Z,16.53
2018-11-26T03:15:18.746Z,15.60
2018-11-26T03:17:46.851Z,15.47
2018-11-26T03:20:14.977Z,14.10
2018-11-26T03:22:43.102Z,15.50
2018-11-26T03:25:11.375Z,14.93
2018-11-26T03:27:39.514Z,14.93
2018-11-26T03:30:10.383Z,16.27
2018-11-26T03:32:38.541Z,14.83
2018-11-26T03:35:07.657Z,14.67
2018-11-26T03:37:35.744Z,15.07
2018-11-26T03:40:06.275Z,14.83
2018-11-26T03:42:34.382Z,15.87
2018-11-26T03:45:02.486Z,15.47
2018-11-26T03:47:30.624Z,15.70
2018-11-26T03:49:58.714Z,15.57
2018-11-26T03:52:26.863Z,15.13
2018-11-26T03:54:54.961Z,15.90
2018-11-26T03:57:23.157Z,15.57
2018-11-26T03:59:51.286Z,15.20
2018-11-26T04:02:19.463Z,15.57
2018-11-26T04:04:47.569Z,15.20
2018-11-26T04:07:15.689Z,16.07
2018-11-26T04:09:43.842Z,15.57
2018-11-26T04:12:11.980Z,15.50
2018-11-26T04:14:40.094Z,15.80
2018-11-26T04:17:08.181Z,16.27
2018-11-26T04:19:36.319Z,16.03
2018-11-26T04:22:04.470Z,15.90
2018-11-26T04:24:32.635Z,15.80
2018-11-26T04:27:00.695Z,16.30
2018-11-26T04:29:28.821Z,15.93
2018-11-26T04:31:56.905Z,15.23
2018-11-26T04:34:25.036Z,15.90
2018-11-26T04:36:53.137Z,16.23
2018-11-26T04:39:21.271Z,15.43
2018-11-26T04:41:49.367Z,15.47
2018-11-26T04:44:17.460Z,15.03
2018-11-26T04:46:46.150Z,15.60
2018-11-26T04:49:14.258Z,15.87
2018-11-26T04:51:42.369Z,16.57
2018-11-26T04:54:10.466Z,14.73
2018-11-26T04:56:38.560Z,15.27
2018-11-26T04:59:06.656Z,14.90
2018-11-26T05:01:34.757Z,14.37
2018-11-26T05:04:02.855Z,14.10
2018-11-26T05:06:30.963Z,14.43
2018-11-26T05:08:59.044Z,13.30
2018-11-26T05:11:27.191Z,13.30
2018-11-26T05:13:55.380Z,14.13
2018-11-26T05:16:23.473Z,14.03
2018-11-26T05:18:51.661Z,13.60
2018-11-26T05:21:19.802Z,13.23
2018-11-26T05:23:47.899Z,12.60
2018-11-26T05:26:15.982Z,12.63
2018-11-26T05:28:44.093Z,12.43
2018-11-26T05:31:12.226Z,11.77
2018-11-26T05:33:40.405Z,12.77
2018-11-26T05:36:08.618Z,11.60
2018-11-26T05:38:36.753Z,12.10
2018-11-26T05:41:04.842Z,11.47
2018-11-26T05:43:32.966Z,9.97
2018-11-26T05:46:01.139Z,10.43
2018-11-26T05:48:29.233Z,10.47
2018-11-26T05:50:57.330Z,10.43
2018-11-26T05:53:25.559Z,10.13
2018-11-26T05:55:53.858Z,10.40
2018-11-26T05:58:22.022Z,9.80
2018-11-26T06:00:50.117Z,9.90
2018-11-26T06:03:18.238Z,9.17
2018-11-26T06:05:46.399Z,10.20
2018-11-26T06:08:14.544Z,12.70
2018-11-26T06:10:42.695Z,10.33
2018-11-26T06:13:10.845Z,9.47
2018-11-26T06:15:38.936Z,9.13
2018-11-26T06:18:07.066Z,9.13
2018-11-26T06:20:35.137Z,8.70
2018-11-26T06:23:03.245Z,8.37
2018-11-26T06:25:31.323Z,8.43
2018-11-26T06:27:59.480Z,7.77
2018-11-26T06:30:27.565Z,7.13
2018-11-26T06:32:55.664Z,7.00
2018-11-26T06:35:23.946Z,7.30
2018-11-26T06:37:52.026Z,7.50
2018-11-26T06:40:20.158Z,6.40
2018-11-26T06:42:48.238Z,7.00
2018-11-26T06:45:21.635Z,6.73
2018-11-26T06:47:49.774Z,7.50
2018-11-26T06:50:18.766Z,6.97
2018-11-26T06:52:46.869Z,6.83
2018-11-26T06:55:16.036Z,12.60
2018-11-26T06:57:44.131Z,6.23
2018-11-26T07:00:14.307Z,6.27
2018-11-26T07:02:42.535Z,6.20
2018-11-26T07:05:17.506Z,5.47
2018-11-26T07:07:45.630Z,7.13
2018-11-26T07:10:14.164Z,6.40
2018-11-26T07:12:42.262Z,5.37
2018-11-26T07:15:15.279Z,5.33
2018-11-26T07:17:43.508Z,6.30
2018-11-26T07:20:13.502Z,5.90
2018-11-26T07:22:41.613Z,5.10
2018-11-26T07:25:14.358Z,5.40
2018-11-26T07:27:43.143Z,5.90
2018-11-26T07:30:12.619Z,5.37
2018-11-26T07:32:41.339Z,5.10
2018-11-26T07:35:09.728Z,5.50
2018-11-26T07:37:37.823Z,4.80
2018-11-26T07:40:09.709Z,5.70
2018-11-26T07:42:37.967Z,4.87
2018-11-26T07:45:09.198Z,4.97
2018-11-26T07:47:37.257Z,4.87
2018-11-26T07:50:08.003Z,5.20
2018-11-26T07:52:36.126Z,4.90
2018-11-26T07:55:04.873Z,4.87
2018-11-26T07:57:33.094Z,4.90
2018-11-26T08:00:01.182Z,4.97
2018-11-26T08:02:29.276Z,4.77
2018-11-26T08:04:57.342Z,4.50
2018-11-26T08:07:25.442Z,4.80
2018-11-26T08:09:53.525Z,4.73
2018-11-26T08:12:21.813Z,4.60
2018-11-26T08:14:49.891Z,4.77
2018-11-26T08:17:17.979Z,5.30
2018-11-26T08:19:46.054Z,4.33
2018-11-26T08:22:14.146Z,3.80
2018-11-26T08:24:42.235Z,4.50
2018-11-26T08:27:10.319Z,4.40
2018-11-26T08:29:38.414Z,4.87
2018-11-26T08:32:06.514Z,4.63
2018-11-26T08:34:34.666Z,4.40
2018-11-26T08:37:09.965Z,4.47
2018-11-26T08:39:43.028Z,4.47
2018-11-26T08:42:16.701Z,3.90
2018-11-26T08:44:46.139Z,3.87
2018-11-26T08:47:18.510Z,3.83
2018-11-26T08:49:46.667Z,3.50
2018-11-26T08:52:14.738Z,3.40
2018-11-26T08:54:42.839Z,3.83
2018-11-26T08:57:10.928Z,3.10
2018-11-26T08:59:39.018Z,3.60
2018-11-26T09:02:09.332Z,3.40
2018-11-26T09:05:40.802Z,3.57
2018-11-26T09:08:09.026Z,3.30
2018-11-26T09:10:37.147Z,3.00
2018-11-26T09:13:05.278Z,3.47
2018-11-26T09:15:33.351Z,3.13
2018-11-26T09:18:01.504Z,3.00
2018-11-26T09:20:29.606Z,3.10
2018-11-26T09:22:57.770Z,3.27
2018-11-26T09:25:25.970Z,3.37
2018-11-26T09:27:54.068Z,3.30
2018-11-26T09:30:22.210Z,3.67
2018-11-26T09:32:50.498Z,3.50
2018-11-26T09:35:18.602Z,2.90
2018-11-26T09:37:46.663Z,3.10
2018-11-26T09:40:17.506Z,3.90
2018-11-26T09:42:45.588Z,3.37
2018-11-26T09:45:15.851Z,3.40
2018-11-26T09:47:44.052Z,2.97
2018-11-26T09:50:14.062Z,3.20
2018-11-26T09:52:42.162Z,3.00
2018-11-26T09:55:10.966Z,2.87
2018-11-26T09:57:39.082Z,2.67
2018-11-26T10:00:11.537Z,2.80
2018-11-26T10:02:40.087Z,2.87
2018-11-26T10:05:10.702Z,3.57
2018-11-26T10:07:38.776Z,2.53
2018-11-26T10:10:08.661Z,3.47
2018-11-26T10:12:37.009Z,2.17
2018-11-26T10:15:21.813Z,2.87
2018-11-26T10:17:49.951Z,2.50
2018-11-26T10:20:18.032Z,2.27
2018-11-26T10:22:46.672Z,2.17
2018-11-26T10:25:15.966Z,2.07
2018-11-26T10:27:44.110Z,2.50
2018-11-26T10:30:15.311Z,2.57
2018-11-26T10:32:43.757Z,1.90
2018-11-26T10:35:13.672Z,1.80
2018-11-26T10:37:41.854Z,1.87
2018-11-26T10:40:12.922Z,2.00
2018-11-26T10:42:41.032Z,2.23
2018-11-26T10:45:12.327Z,1.73
2018-11-26T10:47:40.520Z,6.23
2018-11-26T10:50:11.782Z,1.73
2018-11-26T10:52:42.050Z,1.60
2018-11-26T10:55:11.582Z,1.83
2018-11-26T10:57:39.706Z,2.37
2018-11-26T11:00:13.852Z,1.83
2018-11-26T11:02:42.546Z,2.10
2018-11-26T11:05:10.732Z,2.00
2018-11-26T11:07:38.920Z,1.60
2018-11-26T11:10:10.134Z,1.80
2018-11-26T11:12:38.240Z,1.43
2018-11-26T11:15:08.375Z,1.73
2018-11-26T11:17:36.458Z,1.67
2018-11-26T11:20:08.050Z,1.50
2018-11-26T11:22:36.136Z,1.77
2018-11-26T11:25:04.545Z,1.40
2018-11-26T11:27:32.614Z,1.90
2018-11-26T11:30:00.714Z,1.60
2018-11-26T11:32:28.852Z,1.70
2018-11-26T11:34:56.936Z,1.70
2018-11-26T11:37:25.027Z,1.70
2018-11-26T11:39:53.103Z,1.80
2018-11-26T11:42:21.201Z,1.60
2018-11-26T11:44:49.315Z,1.80
2018-11-26T11:47:17.466Z,2.30
2018-11-26T11:49:45.655Z,2.00
2018-11-26T11:52:13.759Z,1.70
2018-11-26T11:54:41.878Z,1.77
2018-11-26T11:57:09.983Z,2.30
2018-11-26T11:59:38.108Z,1.70
2018-11-26T12:02:06.925Z,2.00
2018-11-26T12:04:35.023Z,1.90
2018-11-26T12:07:03.104Z,1.60
2018-11-26T12:09:31.226Z,1.93
2018-11-26T12:11:59.320Z,1.80
2018-11-26T12:14:27.484Z,1.53
2018-11-26T12:16:55.620Z,1.90
2018-11-26T12:19:23.688Z,1.77
2018-11-26T12:21:51.835Z,3.27
2018-11-26T12:24:19.920Z,1.80
2018-11-26T12:26:48.018Z,1.97
2018-11-26T12:29:16.219Z,1.70
2018-11-26T12:31:44.305Z,1.30
2018-11-26T12:34:12.391Z,1.70
2018-11-26T12:36:40.479Z,1.80
2018-11-26T12:39:09.382Z,1.63
2018-11-26T12:41:37.499Z,1.53
2018-11-26T12:44:05.772Z,1.60
2018-11-26T12:46:33.864Z,1.67
2018-11-26T12:49:01.967Z,1.60
2018-11-26T12:51:30.091Z,1.50
2018-11-26T12:53:58.175Z,1.73
2018-11-26T12:56:26.255Z,1.40
2018-11-26T12:58:54.348Z,1.60
2018-11-26T13:01:22.450Z,1.50
2018-11-26T13:03:50.731Z,2.20
2018-11-26T13:06:18.819Z,2.10
2018-11-26T13:08:46.915Z,1.80
2018-11-26T13:11:15.002Z,1.90
2018-11-26T13:13:43.083Z,1.63
2018-11-26T13:16:11.155Z,1.63
2018-11-26T13:18:39.335Z,1.60
2018-11-26T13:21:07.476Z,1.60
2018-11-26T13:23:35.557Z,1.77
2018-11-26T13:26:03.635Z,1.40
2018-11-26T13:28:31.743Z,1.40
2018-11-26T13:30:59.832Z,2.00
2018-11-26T13:33:27.968Z,1.77
2018-11-26T13:35:56.052Z,2.13
2018-11-26T13:38:24.142Z,15.40
2018-11-26T13:40:52.251Z,1.70
2018-11-26T13:43:20.382Z,1.80
2018-11-26T13:45:49.223Z,2.07
2018-11-26T13:48:18.345Z,2.23
2018-11-26T13:50:48.963Z,1.77
2018-11-26T13:53:17.043Z,1.90
2018-11-26T13:55:45.123Z,1.93
2018-11-26T13:58:13.315Z,2.00
2018-11-26T14:00:41.405Z,1.40
2018-11-26T14:03:09.488Z,1.77
2018-11-26T14:05:37.580Z,1.90
2018-11-26T14:08:06.144Z,1.60
2018-11-26T14:10:34.235Z,1.83
2018-11-26T14:13:10.584Z,2.10
2018-11-26T14:15:38.712Z,1.60
2018-11-26T14:18:06.825Z,2.00
2018-11-26T14:20:36.056Z,2.10
2018-11-26T14:23:04.339Z,1.87
2018-11-26T14:25:32.437Z,1.20
2018-11-26T14:28:00.614Z,2.33
2018-11-26T14:30:29.532Z,1.53
2018-11-26T14:32:57.660Z,2.10
2018-11-26T14:35:25.787Z,2.00
2018-11-26T14:37:57.750Z,1.90
2018-11-26T14:40:29.051Z,2.43
2018-11-26T14:42:57.165Z,1.90
2018-11-26T14:45:25.315Z,1.70
2018-11-26T14:47:53.503Z,2.00
2018-11-26T14:50:21.587Z,2.33
2018-11-26T14:52:50.160Z,2.03
2018-11-26T14:55:21.468Z,2.00
2018-11-26T14:57:49.576Z,2.57
2018-11-26T15:00:18.291Z,2.53
2018-11-26T15:02:46.770Z,2.20
2018-11-26T15:05:14.902Z,2.37
2018-11-26T15:07:43.123Z,2.53
2018-11-26T15:10:15.094Z,2.53
2018-11-26T15:12:43.535Z,2.30
2018-11-26T15:15:13.839Z,2.77
2018-11-26T15:17:43.412Z,2.10
2018-11-26T15:20:12.768Z,3.60
2018-11-26T15:22:40.887Z,3.10
2018-11-26T15:25:11.641Z,2.80
2018-11-26T15:27:39.892Z,2.77
2018-11-26T15:30:15.057Z,2.20
2018-11-26T15:32:43.312Z,2.77
2018-11-26T15:35:14.350Z,3.07
2018-11-26T15:37:42.473Z,2.70
2018-11-26T15:40:11.513Z,3.00
2018-11-26T15:42:39.658Z,3.17
2018-11-26T15:45:27.979Z,2.33
2018-11-26T15:47:57.445Z,2.30
2018-11-26T15:50:25.547Z,2.77
2018-11-26T15:52:53.647Z,2.50
2018-11-26T15:55:22.180Z,2.27
2018-11-26T15:57:50.369Z,2.53
2018-11-26T16:00:21.771Z,4.63
2018-11-26T16:02:50.161Z,2.83
2018-11-26T16:05:27.352Z,2.97
2018-11-26T16:07:58.904Z,2.80
2018-11-26T16:10:27.024Z,3.10
2018-11-26T16:12:56.281Z,2.30
2018-11-26T16:15:32.779Z,3.67
2018-11-26T16:18:01.692Z,3.20
2018-11-26T16:20:29.808Z,2.87
2018-11-26T16:22:58.904Z,2.97
2018-11-26T16:25:27.099Z,2.60
2018-11-26T16:27:55.298Z,2.93
2018-11-26T16:30:23.512Z,2.67
2018-11-26T16:32:53.000Z,3.90
2018-11-26T16:35:22.448Z,3.63
2018-11-26T16:37:50.674Z,4.67
2018-11-26T16:40:18.796Z,2.53
2018-11-26T16:42:47.103Z,3.60
2018-11-26T16:45:16.497Z,4.63
2018-11-26T16:47:45.690Z,2.63
2018-11-26T16:50:14.918Z,2.73
2018-11-26T16:52:43.023Z,3.03
2018-11-26T16:55:12.572Z,3.43
2018-11-26T16:57:40.879Z,3.40
2018-11-26T17:00:16.204Z,2.90
2018-11-26T17:02:44.529Z,3.20
2018-11-26T17:05:16.929Z,2.77
2018-11-26T17:07:45.028Z,3.10
2018-11-26T17:10:13.783Z,2.80
2018-11-26T17:12:42.111Z,3.90
2018-11-26T17:15:12.590Z,3.70
2018-11-26T17:17:40.903Z,2.80
2018-11-26T17:20:10.580Z,2.83
2018-11-26T17:22:38.666Z,2.80
2018-11-26T17:25:09.164Z,2.40
2018-11-26T17:27:37.696Z,2.40
2018-11-26T17:30:11.811Z,2.87
2018-11-26T17:32:39.935Z,2.77
2018-11-26T17:35:09.745Z,3.10
2018-11-26T17:37:42.640Z,3.13
2018-11-26T17:40:08.475Z,3.60
2018-11-26T17:42:36.684Z,3.20
2018-11-26T17:45:05.507Z,3.47
2018-11-26T17:47:33.613Z,2.93
2018-11-26T17:50:01.765Z,3.53
2018-11-26T17:52:30.105Z,2.80
2018-11-26T17:54:58.269Z,2.90
2018-11-26T17:57:26.383Z,3.57
2018-11-26T17:59:54.612Z,2.90
2018-11-26T18:02:22.742Z,3.20
2018-11-26T18:04:50.867Z,2.87
2018-11-26T18:07:19.013Z,3.30
2018-11-26T18:09:47.391Z,2.93
2018-11-26T18:12:15.487Z,3.90
2018-11-26T18:14:44.297Z,3.00
2018-11-26T18:17:12.438Z,3.13
2018-11-26T18:19:40.620Z,3.20
2018-11-26T18:22:08.720Z,3.40
2018-11-26T18:27:11.446Z,2.97
2018-11-26T18:29:40.185Z,2.80
2018-11-26T18:32:08.328Z,2.80
2018-11-26T18:34:36.443Z,2.57
2018-11-26T18:37:04.960Z,2.27
2018-11-26T18:39:33.039Z,2.20
2018-11-26T18:42:01.127Z,2.50
2018-11-26T18:44:29.236Z,2.13
2018-11-26T18:46:57.407Z,2.47
2018-11-26T18:49:25.633Z,2.70
2018-11-26T18:51:53.703Z,2.50
2018-11-26T18:54:21.886Z,2.10
2018-11-26T18:56:50.015Z,2.10
2018-11-26T18:59:18.167Z,2.80
2018-11-26T19:01:46.319Z,2.77
2018-11-26T19:04:14.477Z,2.63
2018-11-26T19:06:42.723Z,2.57
2018-11-26T19:09:10.892Z,2.47
2018-11-26T19:11:38.979Z,3.10
2018-11-26T19:14:10.315Z,2.40
2018-11-26T19:16:44.368Z,2.43
2018-11-26T19:19:12.546Z,3.07
2018-11-26T19:21:40.683Z,2.40
2018-11-26T19:24:08.896Z,2.50
2018-11-26T19:26:37.063Z,3.07
2018-11-26T19:29:05.656Z,3.20
2018-11-26T19:31:33.770Z,2.73
2018-11-26T19:34:01.894Z,2.80
2018-11-26T19:36:30.024Z,2.67
2018-11-26T19:38:59.965Z,3.40
2018-11-26T19:41:28.149Z,2.43
2018-11-26T19:43:56.260Z,4.00
2018-11-26T19:46:24.348Z,2.97
2018-11-26T19:48:52.431Z,2.80
2018-11-26T19:51:20.721Z,2.20
2018-11-26T19:53:48.888Z,2.67
2018-11-26T19:56:16.999Z,2.63
2018-11-26T19:58:45.131Z,2.70
2018-11-26T20:01:13.232Z,3.23
2018-11-26T20:03:44.080Z,2.80
2018-11-26T20:06:13.880Z,2.77
2018-11-26T20:08:42.555Z,2.77
2018-11-26T20:11:11.305Z,2.83
2018-11-26T20:13:39.472Z,3.20
2018-11-26T20:16:12.995Z,3.20
2018-11-26T20:18:41.085Z,4.10
2018-11-26T20:21:09.638Z,3.23
2018-11-26T20:23:37.756Z,3.50
2018-11-26T20:26:06.334Z,2.87
2018-11-26T20:28:34.480Z,3.03
2018-11-26T20:31:02.633Z,3.20
2018-11-26T20:33:30.728Z,2.87
2018-11-26T20:35:58.809Z,2.73
2018-11-26T20:38:27.055Z,2.83
2018-11-26T20:40:55.163Z,3.20
2018-11-26T20:43:23.297Z,3.50
2018-11-26T20:45:51.521Z,3.23
2018-11-26T20:48:19.662Z,3.03
2018-11-26T20:50:50.139Z,3.50
2018-11-26T20:53:19.778Z,3.03
2018-11-26T20:55:48.007Z,3.23
2018-11-26T20:58:16.136Z,3.10
2018-11-26T21:00:44.369Z,3.30
2018-11-26T21:03:12.482Z,4.00
2018-11-26T21:05:41.229Z,2.90
2018-11-26T21:08:09.360Z,3.60
2018-11-26T21:10:37.505Z,3.20
2018-11-26T21:13:05.745Z,4.23
2018-11-26T21:15:33.824Z,3.20
2018-11-26T21:18:10.090Z,3.73
2018-11-26T21:20:39.840Z,4.10
2018-11-26T21:23:10.907Z,4.37
2018-11-26T21:25:39.031Z,4.17
2018-11-26T21:28:07.163Z,3.83
2018-11-26T21:30:35.319Z,3.87
2018-11-26T21:33:03.427Z,3.97
2018-11-26T21:35:31.611Z,4.10
2018-11-26T21:37:59.727Z,4.40
2018-11-26T21:40:27.844Z,4.10
2018-11-26T21:42:55.924Z,3.83
2018-11-26T21:45:25.812Z,4.17
2018-11-26T21:47:54.127Z,3.87
2018-11-26T21:50:22.300Z,4.30
2018-11-26T21:52:50.471Z,4.70
2018-11-26T21:55:18.683Z,4.40
2018-11-26T21:57:46.867Z,4.60
2018-11-26T22:00:18.029Z,4.03
2018-11-26T22:02:46.303Z,3.90
2018-11-26T22:05:14.423Z,4.60
2018-11-26T22:07:42.507Z,4.13
2018-11-26T22:10:12.876Z,4.63
2018-11-26T22:12:41.258Z,5.13
2018-11-26T22:15:11.747Z,5.30
2018-11-26T22:17:40.189Z,5.23
2018-11-26T22:20:10.324Z,4.77
2018-11-26T22:22:38.387Z,5.03
2018-11-26T22:25:07.862Z,4.97
2018-11-26T22:27:35.955Z,5.27
2018-11-26T22:30:07.811Z,5.23
2018-11-26T22:32:35.903Z,5.37
2018-11-26T22:35:04.058Z,5.50
2018-11-26T22:37:32.127Z,5.23
2018-11-26T22:40:00.258Z,5.23
2018-11-26T22:42:28.333Z,5.43
2018-11-26T22:44:57.467Z,4.87
2018-11-26T22:47:25.552Z,5.07
2018-11-26T22:49:54.497Z,5.53
2018-11-26T22:52:22.579Z,5.83
2018-11-26T22:54:50.696Z,5.40
2018-11-26T22:57:18.838Z,5.97
2018-11-26T22:59:46.951Z,5.67
2018-11-26T23:02:15.107Z,5.13
2018-11-26T23:04:43.175Z,5.73
2018-11-26T23:07:11.357Z,5.33
2018-11-26T23:09:40.086Z,5.13
2018-11-26T23:12:08.205Z,5.30
2018-11-26T23:14:36.282Z,4.83
2018-11-26T23:17:04.355Z,5.87
2018-11-26T23:19:32.536Z,5.40
2018-11-26T23:22:00.643Z,5.37
2018-11-26T23:24:28.726Z,5.27
2018-11-26T23:26:56.793Z,5.40
2018-11-26T23:29:24.871Z,5.33
2018-11-26T23:31:52.951Z,5.47
2018-11-26T23:34:21.156Z,5.00
2018-11-26T23:36:49.306Z,5.10
2018-11-26T23:39:17.413Z,5.17
2018-11-26T23:41:45.516Z,5.07
2018-11-26T23:44:13.620Z,5.33
2018-11-26T23:46:41.735Z,5.30
2018-11-26T23:49:09.824Z,5.03
2018-11-26T23:51:37.903Z,5.40
2018-11-26T23:54:05.987Z,5.10
2018-11-26T23:56:34.091Z,5.07
2018-11-26T23:59:02.286Z,5.20
